createdAt,value
2023-02-25T00:01:38.639Z,68.43
2023-02-25T00:04:05.196Z,68.74
2023-02-25T00:06:31.850Z,67.91
2023-02-25T00:09:01.284Z,67.82
2023-02-25T00:11:28.350Z,69.51
2023-02-25T00:13:55.493Z,68.97
2023-02-25T00:16:23.631Z,68.78
2023-02-25T00:18:55.876Z,69.21
2023-02-25T00:21:23.498Z,69.00
2023-02-25T00:23:50.818Z,68.73
2023-02-25T00:26:18.118Z,67.96
2023-02-25T00:28:44.789Z,69.90
2023-02-25T00:31:14.418Z,69.12
2023-02-25T00:33:47.260Z,69.30
2023-02-25T00:36:21.285Z,69.27
2023-02-25T00:38:52.978Z,68.76
2023-02-25T00:41:22.559Z,67.87
2023-02-25T00:44:39.449Z,69.11
2023-02-25T01:05:12.891Z,67.46
2023-02-25T01:07:39.717Z,66.86
2023-02-25T01:10:07.600Z,66.73
2023-02-25T01:12:34.144Z,66.77
2023-02-25T01:15:14.023Z,66.62
2023-02-25T01:17:56.810Z,66.59
2023-02-25T01:20:24.222Z,66.86
2023-02-25T01:22:50.818Z,66.80
2023-02-25T01:25:18.510Z,66.50
2023-02-25T01:27:45.135Z,66.23
2023-02-25T01:30:12.352Z,66.05
2023-02-25T01:33:00.998Z,66.00
2023-02-25T01:35:27.590Z,66.44
2023-02-25T01:37:55.309Z,66.52
2023-02-25T01:40:21.845Z,66.41
2023-02-25T01:42:58.011Z,66.52
2023-02-25T01:45:55.813Z,66.71
2023-02-25T01:48:44.484Z,66.70
2023-02-25T01:51:15.067Z,67.33
2023-02-25T01:53:46.578Z,66.97
2023-02-25T01:56:17.380Z,66.67
2023-02-25T01:58:44.538Z,66.70
2023-02-25T02:01:17.407Z,66.77
2023-02-25T02:03:44.412Z,66.85
2023-02-25T02:06:13.201Z,66.70
2023-02-25T02:08:42.316Z,66.83
2023-02-25T02:11:08.938Z,67.74
2023-02-25T02:13:38.804Z,67.43
2023-02-25T02:16:36.471Z,67.36
2023-02-25T02:19:27.891Z,67.12
2023-02-25T02:22:05.385Z,67.04
2023-02-25T02:24:53.282Z,66.85
2023-02-25T02:27:50.851Z,67.52
2023-02-25T02:30:45.541Z,68.13
2023-02-25T02:33:56.138Z,67.82
2023-02-25T02:36:35.173Z,67.67
2023-02-25T02:39:31.915Z,68.14
2023-02-25T02:42:44.046Z,67.98
2023-02-25T02:46:03.296Z,67.89
2023-02-25T02:49:12.530Z,68.03
2023-02-25T02:51:49.786Z,68.22
2023-02-25T02:54:18.116Z,67.79
2023-02-25T02:56:51.770Z,67.50
2023-02-25T02:59:28.322Z,67.69
2023-02-25T03:02:03.795Z,67.69
2023-02-25T03:04:36.050Z,67.60
2023-02-25T03:07:08.072Z,67.46
2023-02-25T03:09:51.886Z,67.19
2023-02-25T03:12:19.134Z,67.23
2023-02-25T03:14:45.937Z,67.25
2023-02-25T03:17:39.858Z,67.19
2023-02-25T03:20:21.623Z,67.25
2023-02-25T03:22:51.003Z,67.04
2023-02-25T03:25:24.037Z,66.66
2023-02-25T03:28:17.433Z,66.93
2023-02-25T03:31:24.739Z,67.79
2023-02-25T03:34:03.339Z,67.87
2023-02-25T03:36:47.895Z,68.87
2023-02-25T03:39:21.983Z,68.90
2023-02-25T03:41:52.480Z,68.22
2023-02-25T03:44:57.519Z,68.76
2023-02-25T03:47:39.053Z,68.15
2023-02-25T03:50:12.195Z,67.68
2023-02-25T03:52:40.624Z,67.40
2023-02-25T03:55:09.730Z,67.26
2023-02-25T04:01:21.713Z,67.02
2023-02-25T04:03:48.293Z,66.57
2023-02-25T04:06:15.232Z,66.43
2023-02-25T04:08:42.279Z,66.32
2023-02-25T04:11:08.841Z,66.27
2023-02-25T04:13:35.434Z,66.17
2023-02-25T04:16:02.100Z,66.60
2023-02-25T04:18:28.785Z,66.51
2023-02-25T04:20:55.382Z,67.24
2023-02-25T04:23:22.282Z,67.07
2023-02-25T04:25:48.996Z,67.24
2023-02-25T04:28:15.597Z,66.81
2023-02-25T04:33:30.343Z,66.54
2023-02-25T04:35:56.884Z,66.34
2023-02-25T04:38:23.482Z,66.72
2023-02-25T04:40:52.054Z,66.84
2023-02-25T04:43:18.701Z,66.35
2023-02-25T04:46:06.999Z,66.12
2023-02-25T04:49:17.754Z,66.88
2023-02-25T04:51:59.894Z,67.64
2023-02-25T04:54:26.422Z,67.48
2023-02-25T04:56:52.992Z,68.20
2023-02-25T04:59:19.561Z,67.08
2023-02-25T05:01:46.179Z,67.23
2023-02-25T05:04:12.743Z,67.87
2023-02-25T05:09:14.549Z,68.17
2023-02-25T05:11:41.111Z,67.70
2023-02-25T05:14:07.687Z,67.65
2023-02-25T05:17:02.647Z,67.08
2023-02-25T05:20:13.139Z,68.21
2023-02-25T05:22:41.847Z,67.87
2023-02-25T05:25:10.050Z,67.69
2023-02-25T05:27:36.695Z,68.45
2023-02-25T05:30:03.588Z,69.04
2023-02-25T05:32:32.084Z,67.85
2023-02-25T05:35:17.680Z,68.12
2023-02-25T05:37:44.367Z,68.34
2023-02-25T05:40:14.106Z,68.77
2023-02-25T05:42:40.828Z,69.33
2023-02-25T05:45:22.577Z,68.39
2023-02-25T05:48:40.057Z,68.17
2023-02-25T05:51:20.599Z,68.55
2023-02-25T05:53:49.136Z,68.17
2023-02-25T05:56:32.004Z,68.48
2023-02-25T05:58:58.902Z,68.66
2023-02-25T06:01:31.653Z,68.75
2023-02-25T06:03:59.082Z,68.11
2023-02-25T06:06:28.133Z,68.33
2023-02-25T06:08:54.881Z,67.48
2023-02-25T06:11:27.791Z,67.25
2023-02-25T06:13:55.800Z,67.06
2023-02-25T06:16:51.435Z,68.48
2023-02-25T06:19:42.984Z,68.55
2023-02-25T06:22:09.523Z,68.48
2023-02-25T06:24:36.197Z,68.50
2023-02-25T06:27:03.116Z,68.91
2023-02-25T06:29:29.752Z,69.40
2023-02-25T06:31:56.455Z,70.50
2023-02-25T06:34:45.132Z,71.01
2023-02-25T06:37:11.705Z,73.49
2023-02-25T06:39:38.290Z,74.42
2023-02-25T06:42:05.944Z,75.27
2023-02-25T06:44:54.484Z,75.66
2023-02-25T06:47:45.510Z,76.26
2023-02-25T06:50:28.268Z,77.01
2023-02-25T06:52:54.834Z,78.02
2023-02-25T06:55:21.493Z,78.15
2023-02-25T06:57:48.052Z,78.25
2023-02-25T07:00:16.104Z,78.21
2023-02-25T07:02:42.687Z,77.45
2023-02-25T07:05:09.573Z,75.67
2023-02-25T07:07:36.112Z,73.98
2023-02-25T07:10:05.872Z,72.60
2023-02-25T07:12:32.439Z,71.03
2023-02-25T07:15:33.205Z,69.39
2023-02-25T07:18:18.055Z,70.22
2023-02-25T07:20:44.698Z,69.20
2023-02-25T07:23:11.254Z,69.83
2023-02-25T07:25:38.751Z,70.42
2023-02-25T07:28:05.353Z,69.28
2023-02-25T07:30:31.928Z,68.55
2023-02-25T07:32:58.571Z,68.71
2023-02-25T07:35:25.148Z,67.12
2023-02-25T07:37:51.728Z,66.81
2023-02-25T07:40:19.669Z,66.19
2023-02-25T07:42:46.251Z,65.30
2023-02-25T07:45:12.834Z,64.11
2023-02-25T07:47:54.940Z,63.79
2023-02-25T07:50:21.490Z,63.33
2023-02-25T07:52:48.034Z,63.49
2023-02-25T07:55:14.576Z,63.21
2023-02-25T07:57:41.177Z,62.28
2023-02-25T08:00:11.634Z,62.24
2023-02-25T08:02:38.581Z,61.09
2023-02-25T08:05:07.119Z,60.53
2023-02-25T08:07:33.739Z,59.88
2023-02-25T08:10:00.551Z,59.15
2023-02-25T08:12:27.112Z,58.47
2023-02-25T08:14:53.679Z,58.70
2023-02-25T08:17:20.277Z,59.32
2023-02-25T08:19:46.832Z,59.85
2023-02-25T08:22:13.392Z,60.54
2023-02-25T08:24:40.307Z,61.05
2023-02-25T08:27:10.500Z,60.84
2023-02-25T08:29:37.391Z,61.04
2023-02-25T08:32:06.803Z,61.62
2023-02-25T08:34:33.699Z,60.46
2023-02-25T08:37:00.264Z,61.05
2023-02-25T08:39:26.883Z,60.29
2023-02-25T08:41:53.449Z,59.73
2023-02-25T08:44:20.724Z,61.03
2023-02-25T08:46:47.377Z,60.99
2023-02-25T08:49:14.007Z,61.20
2023-02-25T08:51:42.346Z,60.41
2023-02-25T08:54:12.449Z,60.35
2023-02-25T08:56:45.126Z,61.56
2023-02-25T08:59:15.638Z,61.35
2023-02-25T09:01:45.365Z,61.53
2023-02-25T09:04:24.407Z,61.53
2023-02-25T09:06:53.810Z,60.74
2023-02-25T09:09:22.038Z,60.27
2023-02-25T09:11:49.382Z,59.33
2023-02-25T09:14:16.216Z,59.49
2023-02-25T09:16:42.999Z,59.38
2023-02-25T09:21:48.336Z,57.10
2023-02-25T09:24:15.424Z,56.29
2023-02-25T09:26:42.480Z,56.66
2023-02-25T09:29:09.446Z,56.61
2023-02-25T09:31:37.801Z,56.52
2023-02-25T09:34:08.910Z,56.02
2023-02-25T09:36:36.229Z,54.65
2023-02-25T09:39:03.309Z,55.36
2023-02-25T09:41:41.400Z,54.44
2023-02-25T09:44:21.210Z,54.87
2023-02-25T09:47:01.688Z,53.66
2023-02-25T09:49:34.337Z,54.64
2023-02-25T09:52:28.807Z,55.05
2023-02-25T09:55:17.953Z,54.69
2023-02-25T09:57:54.250Z,55.54
2023-02-25T10:00:23.731Z,54.47
2023-02-25T10:03:05.356Z,54.64
2023-02-25T10:05:54.180Z,54.55
2023-02-25T10:08:31.732Z,55.23
2023-02-25T10:11:01.859Z,55.50
2023-02-25T10:13:42.000Z,55.05
2023-02-25T10:16:30.317Z,53.58
2023-02-25T10:19:24.052Z,53.68
2023-02-25T10:22:02.581Z,56.43
2023-02-25T10:25:22.434Z,55.15
2023-02-25T10:28:01.078Z,54.31
2023-02-25T10:30:44.850Z,53.69
2023-02-25T10:33:37.368Z,53.18
2023-02-25T10:36:59.785Z,53.41
2023-02-25T10:39:56.761Z,52.21
2023-02-25T10:42:24.521Z,51.44
2023-02-25T10:44:51.508Z,51.57
2023-02-25T10:47:31.113Z,51.61
2023-02-25T10:50:19.568Z,50.70
2023-02-25T10:52:55.585Z,50.94
2023-02-25T10:56:14.013Z,49.93
2023-02-25T10:58:47.218Z,50.04
2023-02-25T11:01:20.561Z,49.83
2023-02-25T11:03:47.176Z,48.13
2023-02-25T11:06:25.835Z,45.96
2023-02-25T11:08:54.809Z,46.16
2023-02-25T11:11:29.692Z,45.53
2023-02-25T11:14:27.761Z,44.66
2023-02-25T11:17:14.045Z,43.63
2023-02-25T11:31:08.203Z,41.98
2023-02-25T11:33:40.728Z,42.09
2023-02-25T11:36:07.970Z,41.68
2023-02-25T11:38:34.566Z,40.82
2023-02-25T11:41:03.521Z,41.20
2023-02-25T11:43:45.295Z,41.47
2023-02-25T12:22:12.967Z,40.00
2023-02-25T12:25:05.691Z,38.78
2023-02-25T12:28:04.157Z,39.97
2023-02-25T12:31:02.749Z,39.19
2023-02-25T12:36:43.621Z,38.93
2023-02-25T12:39:34.673Z,39.19
2023-02-25T12:42:40.158Z,38.90
2023-02-25T12:45:15.337Z,37.85
2023-02-25T12:47:43.146Z,37.59
2023-02-25T12:54:34.797Z,37.80
2023-02-25T12:57:38.728Z,36.65
2023-02-25T13:00:17.488Z,36.41
2023-02-25T13:02:52.831Z,36.17
2023-02-25T13:06:01.668Z,35.00
2023-02-25T13:08:51.160Z,35.53
2023-02-25T13:11:48.249Z,36.15
2023-02-25T13:14:48.211Z,36.41
2023-02-25T13:17:52.377Z,37.28
2023-02-25T13:20:24.902Z,37.32
2023-02-25T13:23:21.143Z,37.02
2023-02-25T13:26:04.358Z,37.36
2023-02-25T13:28:43.154Z,37.08
2023-02-25T13:31:32.759Z,37.79
2023-02-25T13:34:15.097Z,36.95
2023-02-25T13:36:45.048Z,36.56
2023-02-25T13:39:33.432Z,37.49
2023-02-25T13:42:11.228Z,37.23
2023-02-25T13:44:46.807Z,37.20
2023-02-25T13:47:35.465Z,36.55
2023-02-25T13:50:37.743Z,35.19
2023-02-25T13:53:04.231Z,35.27
2023-02-25T13:55:38.918Z,35.25
2023-02-25T13:58:41.587Z,35.01
2023-02-25T14:01:26.779Z,34.72
2023-02-25T14:04:24.668Z,34.49
2023-02-25T14:07:19.478Z,35.42
2023-02-25T14:09:55.096Z,35.79
2023-02-25T14:12:21.559Z,36.00
2023-02-25T14:15:20.325Z,36.38
2023-02-25T14:17:58.556Z,36.09
2023-02-25T14:21:16.188Z,35.72
2023-02-25T14:23:52.842Z,35.47
2023-02-25T14:26:40.937Z,35.42
2023-02-25T14:29:26.195Z,36.31
2023-02-25T14:31:52.762Z,36.46
2023-02-25T14:34:22.216Z,37.12
2023-02-25T14:37:07.490Z,37.28
2023-02-25T14:39:48.921Z,37.33
2023-02-25T14:42:47.530Z,36.80
2023-02-25T14:45:36.973Z,36.43
2023-02-25T14:48:25.592Z,37.26
2023-02-25T14:52:11.359Z,37.53
2023-02-25T14:55:35.290Z,38.42
2023-02-25T14:58:39.156Z,37.18
2023-02-25T15:01:27.039Z,37.37
2023-02-25T15:04:25.212Z,38.30
2023-02-25T15:07:06.998Z,37.99
2023-02-25T15:09:52.065Z,37.93
2023-02-25T15:12:27.483Z,38.62
2023-02-25T15:14:54.053Z,37.17
2023-02-25T15:17:47.729Z,36.88
2023-02-25T15:20:47.815Z,36.92
2023-02-25T15:23:19.862Z,38.38
2023-02-25T15:25:46.760Z,37.84
2023-02-25T15:28:28.902Z,37.90
2023-02-25T15:31:01.843Z,38.00
2023-02-25T15:33:38.844Z,37.93
2023-02-25T15:36:14.719Z,38.91
2023-02-25T15:38:41.414Z,38.46
2023-02-25T15:41:45.041Z,39.34
2023-02-25T15:44:11.556Z,38.55
2023-02-25T15:46:40.621Z,38.72
2023-02-25T15:49:33.767Z,38.93
2023-02-25T15:52:05.231Z,38.66
2023-02-25T15:54:31.764Z,38.50
2023-02-25T15:57:04.893Z,39.03
2023-02-25T15:59:43.633Z,38.48
2023-02-25T16:02:28.642Z,38.43
2023-02-25T16:05:13.623Z,38.04
2023-02-25T16:07:50.005Z,39.10
2023-02-25T16:10:19.563Z,39.12
2023-02-25T16:12:49.301Z,39.08
2023-02-25T16:15:32.849Z,38.84
2023-02-25T16:18:15.952Z,39.26
2023-02-25T16:20:48.277Z,39.68
2023-02-25T16:23:16.714Z,39.63
2023-02-25T16:26:01.835Z,40.93
2023-02-25T16:29:13.052Z,41.11
2023-02-25T16:31:48.212Z,40.20
2023-02-25T16:34:25.736Z,40.17
2023-02-25T16:37:17.295Z,40.53
2023-02-25T16:39:44.146Z,40.40
2023-02-25T16:42:17.062Z,40.55
2023-02-25T16:45:01.918Z,40.50
2023-02-25T16:47:33.136Z,40.88
2023-02-25T16:50:03.414Z,41.53
2023-02-25T16:52:33.896Z,41.31
2023-02-25T16:55:05.417Z,41.40
2023-02-25T16:57:34.061Z,41.55
2023-02-25T17:00:18.914Z,42.21
2023-02-25T17:02:53.659Z,42.56
2023-02-25T17:05:25.571Z,43.51
2023-02-25T17:07:57.288Z,43.52
2023-02-25T17:10:26.820Z,42.84
2023-02-25T17:12:54.020Z,42.59
2023-02-25T17:15:30.276Z,43.04
2023-02-25T17:18:10.110Z,43.01
2023-02-25T17:20:37.515Z,43.00
2023-02-25T17:23:08.809Z,43.23
2023-02-25T17:25:42.311Z,43.24
2023-02-25T17:28:17.651Z,43.29
2023-02-25T17:30:48.380Z,43.34
2023-02-25T17:33:28.214Z,43.44
2023-02-25T17:36:09.641Z,43.61
2023-02-25T17:38:39.028Z,43.67
2023-02-25T17:41:06.074Z,43.56
2023-02-25T17:43:37.796Z,43.67
2023-02-25T17:46:36.352Z,44.99
2023-02-25T17:49:19.835Z,44.16
2023-02-25T17:51:52.304Z,44.13
2023-02-25T17:54:22.048Z,44.51
2023-02-25T17:57:17.176Z,44.58
2023-02-25T18:00:00.456Z,44.89
2023-02-25T18:02:41.842Z,45.23
2023-02-25T18:05:16.682Z,47.04
2023-02-25T18:07:44.958Z,46.33
2023-02-25T18:10:26.756Z,46.63
2023-02-25T18:12:55.408Z,46.51
2023-02-25T18:15:25.140Z,46.67
2023-02-25T18:17:54.368Z,46.58
2023-02-25T18:20:31.646Z,46.89
2023-02-25T18:23:24.815Z,47.64
2023-02-25T18:26:25.500Z,47.73
2023-02-25T18:28:54.817Z,48.29
2023-02-25T18:31:22.437Z,48.07
2023-02-25T18:33:49.644Z,48.05
2023-02-25T18:36:24.067Z,47.74
2023-02-25T18:38:54.350Z,47.55
2023-02-25T18:41:21.066Z,48.74
2023-02-25T18:43:47.716Z,48.19
2023-02-25T18:46:15.602Z,47.88
2023-02-25T18:48:42.507Z,48.18
2023-02-25T18:51:15.330Z,48.12
2023-02-25T18:53:42.076Z,48.51
2023-02-25T18:56:16.796Z,48.71
2023-02-25T18:58:44.470Z,48.59
2023-02-25T19:01:21.643Z,49.21
2023-02-25T19:03:48.521Z,49.01
2023-02-25T19:06:15.129Z,48.36
2023-02-25T19:08:41.683Z,48.39
2023-02-25T19:11:16.029Z,48.87
2023-02-25T19:13:43.003Z,48.69
2023-02-25T19:16:09.775Z,48.56
2023-02-25T19:18:37.686Z,48.75
2023-02-25T19:21:06.782Z,49.21
2023-02-25T19:23:33.305Z,49.28
2023-02-25T19:26:01.291Z,49.22
2023-02-25T19:28:28.062Z,50.43
2023-02-25T19:30:54.849Z,51.39
2023-02-25T19:33:21.441Z,51.31
2023-02-25T19:35:48.209Z,52.10
2023-02-25T19:38:17.699Z,51.84
2023-02-25T19:40:45.156Z,52.05
2023-02-25T19:43:12.420Z,52.00
2023-02-25T19:45:40.519Z,51.82
2023-02-25T19:48:07.624Z,52.82
2023-02-25T19:50:35.025Z,52.53
2023-02-25T19:53:26.199Z,52.78
2023-02-25T19:55:56.349Z,52.81
2023-02-25T19:58:23.207Z,52.22
2023-02-25T20:00:49.834Z,52.19
2023-02-25T20:09:55.845Z,52.20
2023-02-25T20:12:22.401Z,51.95
2023-02-25T20:14:48.958Z,52.02
2023-02-25T20:17:15.504Z,52.06
2023-02-25T20:19:42.132Z,52.21
2023-02-25T20:22:09.778Z,52.59
2023-02-25T20:24:36.544Z,52.57
2023-02-25T20:27:03.160Z,53.42
2023-02-25T20:29:29.789Z,53.80
2023-02-25T20:31:57.624Z,53.61
2023-02-25T20:34:28.256Z,53.15
2023-02-25T20:36:59.822Z,53.83
2023-02-25T20:39:38.378Z,53.75
2023-02-25T20:42:10.658Z,53.13
2023-02-25T20:44:37.919Z,52.49
2023-02-25T20:47:05.313Z,52.48
2023-02-25T20:49:32.851Z,52.75
2023-02-25T20:52:00.020Z,52.81
2023-02-25T20:54:29.047Z,52.99
2023-02-25T20:56:55.750Z,53.32
2023-02-25T20:59:22.306Z,53.25
2023-02-25T21:01:49.148Z,53.77
2023-02-25T21:04:15.750Z,53.45
2023-02-25T21:06:42.363Z,54.45
2023-02-25T21:09:08.941Z,55.13
2023-02-25T21:11:35.788Z,54.66
2023-02-25T21:16:43.340Z,55.85
2023-02-25T21:19:09.925Z,55.54
2023-02-25T21:21:39.601Z,56.01
2023-02-25T21:24:08.855Z,55.93
2023-02-25T21:26:39.273Z,55.99
2023-02-25T21:29:06.869Z,56.68
2023-02-25T21:31:33.928Z,56.81
2023-02-25T21:34:01.598Z,56.47
2023-02-25T21:36:29.146Z,56.79
2023-02-25T21:38:55.960Z,56.11
2023-02-25T21:41:23.200Z,56.52
2023-02-25T21:43:51.941Z,56.37
2023-02-25T21:46:18.955Z,57.16
2023-02-25T21:48:50.585Z,56.98
2023-02-25T21:51:24.370Z,57.66
2023-02-25T21:53:59.066Z,56.74
2023-02-25T21:56:26.746Z,56.55
2023-02-25T21:58:58.198Z,56.55
2023-02-25T22:01:31.342Z,56.56
2023-02-25T22:03:58.299Z,56.72
2023-02-25T22:06:26.121Z,56.54
2023-02-25T22:08:54.285Z,56.57
2023-02-25T22:11:33.027Z,56.33
2023-02-25T22:14:01.591Z,57.40
2023-02-25T22:16:29.258Z,56.31
2023-02-25T22:18:56.519Z,55.92
2023-02-25T22:21:26.321Z,55.64
2023-02-25T22:23:54.960Z,55.32
2023-02-25T22:26:24.746Z,54.89
2023-02-25T22:28:58.793Z,55.36
2023-02-25T22:31:26.307Z,54.76
2023-02-25T22:33:53.452Z,56.50
2023-02-25T22:36:20.313Z,55.75
2023-02-25T22:38:48.585Z,57.03
2023-02-25T22:41:20.029Z,56.11
2023-02-25T22:43:47.021Z,55.68
2023-02-25T22:46:16.267Z,55.27
2023-02-25T22:48:44.901Z,55.98
2023-02-25T22:53:46.753Z,55.80
2023-02-25T22:56:13.442Z,56.44
2023-02-25T22:58:40.866Z,57.08
2023-02-25T23:01:08.919Z,56.20
2023-02-25T23:03:36.245Z,56.24
2023-02-25T23:06:02.876Z,56.26
2023-02-25T23:08:29.518Z,55.82
2023-02-25T23:10:56.372Z,56.06
2023-02-25T23:13:23.045Z,55.84
2023-02-25T23:15:50.262Z,55.05
2023-02-25T23:18:16.997Z,55.81
2023-02-25T23:20:43.952Z,55.13
2023-02-25T23:23:13.572Z,54.91
2023-02-25T23:25:44.931Z,55.26
2023-02-25T23:28:11.484Z,55.39
2023-02-25T23:30:38.968Z,57.03
2023-02-25T23:33:06.410Z,56.42
2023-02-25T23:35:34.180Z,56.80
2023-02-25T23:38:01.095Z,56.91
2023-02-25T23:40:28.970Z,57.17
2023-02-25T23:42:55.971Z,57.12
2023-02-25T23:45:22.872Z,56.35
2023-02-25T23:47:49.661Z,55.83
2023-02-25T23:50:17.686Z,57.01
2023-02-25T23:52:46.638Z,56.77
2023-02-25T23:55:14.730Z,56.34
2023-02-25T23:57:42.023Z,56.54
